createdAt,value
2022-09-10T00:01:26.813Z,2.50
2022-09-10T00:03:54.926Z,2.65
2022-09-10T00:06:27.906Z,2.35
2022-09-10T00:08:58.868Z,2.72
2022-09-10T00:11:28.162Z,2.78
2022-09-10T00:13:57.363Z,2.88
2022-09-10T00:16:25.342Z,2.83
2022-09-10T00:18:52.324Z,3.63
2022-09-10T00:21:21.061Z,2.97
2022-09-10T00:23:48.934Z,3.13
2022-09-10T00:26:22.882Z,2.60
2022-09-10T00:28:51.925Z,2.40
2022-09-10T00:31:20.064Z,2.67
2022-09-10T00:33:46.857Z,3.25
2022-09-10T00:36:19.562Z,2.60
2022-09-10T00:38:46.994Z,4.30
2022-09-10T00:41:15.386Z,3.97
2022-09-10T00:43:57.100Z,3.33
2022-09-10T00:46:43.907Z,3.28
2022-09-10T00:49:36.131Z,3.92
2022-09-10T00:52:04.092Z,3.88
2022-09-10T00:54:34.594Z,3.45
2022-09-10T00:57:12.737Z,3.83
2022-09-10T00:59:46.809Z,3.20
2022-09-10T01:02:14.300Z,3.30
2022-09-10T01:04:41.882Z,3.03
2022-09-10T01:07:10.912Z,2.90
2022-09-10T01:09:39.219Z,2.92
2022-09-10T01:12:05.919Z,2.80
2022-09-10T01:14:51.715Z,2.80
2022-09-10T01:17:37.015Z,2.92
2022-09-10T01:20:26.013Z,3.53
2022-09-10T01:23:29.224Z,2.75
2022-09-10T01:26:33.241Z,2.42
2022-09-10T01:29:14.660Z,2.30
2022-09-10T01:31:51.988Z,2.20
2022-09-10T01:34:27.526Z,3.20
2022-09-10T01:37:00.194Z,2.42
2022-09-10T01:39:27.902Z,2.70
2022-09-10T01:41:54.748Z,2.78
2022-09-10T01:44:43.147Z,2.47
2022-09-10T01:47:17.805Z,2.38
2022-09-10T01:49:53.441Z,1.80
2022-09-10T01:52:45.759Z,1.90
2022-09-10T01:55:42.004Z,2.42
2022-09-10T01:58:50.355Z,2.28
2022-09-10T02:04:04.091Z,1.92
2022-09-10T02:06:36.439Z,2.22
2022-09-10T02:09:04.298Z,2.42
2022-09-10T02:11:43.215Z,2.00
2022-09-10T02:14:10.166Z,2.22
2022-09-10T02:16:40.418Z,1.98
2022-09-10T02:19:08.218Z,2.50
2022-09-10T02:21:35.828Z,2.13
2022-09-10T02:24:10.091Z,1.60
2022-09-10T02:26:39.882Z,1.98
2022-09-10T02:29:09.299Z,1.75
2022-09-10T02:31:36.560Z,3.35
2022-09-10T02:34:03.634Z,1.85
2022-09-10T02:36:31.861Z,2.10
2022-09-10T02:39:01.356Z,3.45
2022-09-10T02:41:28.031Z,2.22
2022-09-10T02:43:55.538Z,1.90
2022-09-10T02:46:22.300Z,2.00
2022-09-10T02:48:48.956Z,2.78
2022-09-10T02:51:15.628Z,2.45
2022-09-10T02:53:42.318Z,1.73
2022-09-10T02:56:09.005Z,1.58
2022-09-10T02:58:35.764Z,2.00
2022-09-10T03:01:10.853Z,1.98
2022-09-10T03:03:37.639Z,2.05
2022-09-10T03:06:04.866Z,1.85
2022-09-10T03:08:31.820Z,1.92
2022-09-10T03:10:59.475Z,2.25
2022-09-10T03:13:27.734Z,2.20
2022-09-10T03:15:58.805Z,2.25
2022-09-10T03:18:27.407Z,2.50
2022-09-10T03:20:54.027Z,2.05
2022-09-10T03:23:20.711Z,2.45
2022-09-10T03:25:49.854Z,2.00
2022-09-10T03:28:16.708Z,2.28
2022-09-10T03:30:43.458Z,2.25
2022-09-10T03:33:11.863Z,2.10
2022-09-10T03:35:38.877Z,1.95
2022-09-10T03:38:05.952Z,2.05
2022-09-10T03:40:33.026Z,1.92
2022-09-10T03:43:01.211Z,1.90
2022-09-10T03:45:28.725Z,1.80
2022-09-10T03:47:55.544Z,2.03
2022-09-10T03:50:22.564Z,2.17
2022-09-10T03:52:49.590Z,1.48
2022-09-10T03:55:16.313Z,1.52
2022-09-10T03:57:42.927Z,1.90
2022-09-10T04:00:13.347Z,1.65
2022-09-10T04:02:41.722Z,1.67
2022-09-10T04:05:09.809Z,2.15
2022-09-10T04:07:36.871Z,2.00
2022-09-10T04:10:04.027Z,1.70
2022-09-10T04:12:30.624Z,1.48
2022-09-10T04:14:57.286Z,2.05
2022-09-10T04:17:27.816Z,2.10
2022-09-10T04:19:54.657Z,1.75
2022-09-10T04:22:22.477Z,1.40
2022-09-10T04:24:49.469Z,2.30
2022-09-10T04:27:16.991Z,2.08
2022-09-10T04:29:43.762Z,2.65
2022-09-10T04:32:10.422Z,1.90
2022-09-10T04:34:37.068Z,2.15
2022-09-10T04:37:03.862Z,2.03
2022-09-10T04:39:30.499Z,2.35
2022-09-10T04:41:58.082Z,2.28
2022-09-10T04:44:24.774Z,2.10
2022-09-10T04:46:51.864Z,2.15
2022-09-10T04:49:18.499Z,2.65
2022-09-10T04:51:45.115Z,3.60
2022-09-10T04:54:14.972Z,2.08
2022-09-10T04:56:47.446Z,3.03
2022-09-10T04:59:14.165Z,2.92
2022-09-10T05:01:40.864Z,2.20
2022-09-10T05:04:07.573Z,3.10
2022-09-10T05:06:35.280Z,2.95
2022-09-10T05:09:02.050Z,2.33
2022-09-10T05:11:28.792Z,2.67
2022-09-10T05:13:55.466Z,2.50
2022-09-10T05:16:22.130Z,2.13
2022-09-10T05:18:48.893Z,3.20
2022-09-10T05:21:15.727Z,2.72
2022-09-10T05:23:42.384Z,3.00
2022-09-10T05:26:10.521Z,3.25
2022-09-10T05:28:37.301Z,3.20
2022-09-10T05:31:03.920Z,3.08
2022-09-10T05:33:31.067Z,2.83
2022-09-10T05:35:57.832Z,2.90
2022-09-10T05:38:24.960Z,3.20
2022-09-10T05:40:53.750Z,3.95
2022-09-10T05:43:21.090Z,3.10
2022-09-10T05:45:48.906Z,3.60
2022-09-10T05:48:15.627Z,3.65
2022-09-10T05:50:45.671Z,3.90
2022-09-10T05:53:12.950Z,4.03
2022-09-10T05:55:39.654Z,4.43
2022-09-10T05:58:06.338Z,4.15
2022-09-10T06:00:33.443Z,4.18
2022-09-10T06:03:00.797Z,5.07
2022-09-10T06:05:28.321Z,4.28
2022-09-10T06:07:55.298Z,4.53
2022-09-10T06:10:22.497Z,4.28
2022-09-10T06:12:52.023Z,4.35
2022-09-10T06:15:20.727Z,3.63
2022-09-10T06:17:48.366Z,4.05
2022-09-10T06:20:15.714Z,3.78
2022-09-10T06:22:45.216Z,4.03
2022-09-10T06:25:15.763Z,3.95
2022-09-10T06:27:44.643Z,4.40
2022-09-10T06:30:17.665Z,3.90
2022-09-10T06:32:44.692Z,3.90
2022-09-10T06:35:11.394Z,3.83
2022-09-10T06:37:38.032Z,3.65
2022-09-10T06:40:05.339Z,3.65
2022-09-10T06:42:39.152Z,3.42
2022-09-10T06:45:06.227Z,3.30
2022-09-10T06:50:20.821Z,4.25
2022-09-10T06:53:02.730Z,4.00
2022-09-10T06:55:29.484Z,3.40
2022-09-10T06:58:14.507Z,3.17
2022-09-10T07:00:41.481Z,3.30
2022-09-10T07:03:09.075Z,2.55
2022-09-10T07:06:16.037Z,3.75
2022-09-10T07:08:43.664Z,3.40
2022-09-10T07:11:13.638Z,3.65
2022-09-10T07:13:54.170Z,2.63
2022-09-10T07:16:25.910Z,2.72
2022-09-10T07:18:57.856Z,2.90
2022-09-10T07:21:27.404Z,2.58
2022-09-10T07:24:23.620Z,3.25
2022-09-10T07:26:50.711Z,2.78
2022-09-10T07:29:18.382Z,2.85
2022-09-10T07:31:47.696Z,2.53
2022-09-10T07:34:14.556Z,2.67
2022-09-10T07:36:41.200Z,2.53
2022-09-10T07:39:09.114Z,2.33
2022-09-10T07:41:36.062Z,2.53
2022-09-10T07:44:02.978Z,2.33
2022-09-10T07:46:30.054Z,2.70
2022-09-10T07:49:00.738Z,2.28
2022-09-10T07:51:31.864Z,2.33
2022-09-10T07:53:59.381Z,3.30
2022-09-10T07:56:26.648Z,2.60
2022-09-10T07:58:54.141Z,2.08
2022-09-10T08:01:21.446Z,1.88
2022-09-10T08:03:48.390Z,2.35
2022-09-10T08:06:16.078Z,2.00
2022-09-10T08:08:45.651Z,1.65
2022-09-10T08:11:17.702Z,2.15
2022-09-10T08:13:46.891Z,1.50
2022-09-10T08:16:17.220Z,1.73
2022-09-10T08:18:45.513Z,2.88
2022-09-10T08:21:13.714Z,1.55
2022-09-10T08:23:40.425Z,2.63
2022-09-10T08:26:10.422Z,2.05
2022-09-10T08:28:38.072Z,2.03
2022-09-10T08:31:08.239Z,1.77
2022-09-10T08:33:35.765Z,1.67
2022-09-10T08:36:04.812Z,1.63
2022-09-10T08:38:37.085Z,1.58
2022-09-10T08:41:28.260Z,1.30
2022-09-10T08:44:03.523Z,1.30
2022-09-10T08:46:37.299Z,1.55
2022-09-10T08:49:28.681Z,1.20
2022-09-10T08:52:19.933Z,1.30
2022-09-10T08:55:17.695Z,1.20
2022-09-10T08:58:23.357Z,1.00
2022-09-10T09:00:55.225Z,1.23
2022-09-10T09:03:31.872Z,1.10
2022-09-10T09:08:29.952Z,1.25
2022-09-10T09:11:10.512Z,1.10
2022-09-10T09:13:51.816Z,1.45
2022-09-10T09:16:34.339Z,1.30
2022-09-10T09:19:17.482Z,1.48
2022-09-10T09:21:52.509Z,1.20
2022-09-10T09:24:23.927Z,1.17
2022-09-10T09:27:01.415Z,1.00
2022-09-10T09:29:46.105Z,1.13
2022-09-10T09:32:17.284Z,0.95
2022-09-10T09:34:51.135Z,0.82
2022-09-10T09:37:24.194Z,1.10
2022-09-10T09:40:17.011Z,0.90
2022-09-10T09:42:50.578Z,0.80
2022-09-10T09:45:40.220Z,1.35
2022-09-10T09:48:10.174Z,1.00
2022-09-10T09:50:41.974Z,1.10
2022-09-10T09:53:17.788Z,0.98
2022-09-10T09:55:53.734Z,1.30
2022-09-10T09:58:32.337Z,1.05
2022-09-10T10:01:05.943Z,1.00
2022-09-10T10:03:38.228Z,1.08
2022-09-10T10:06:10.314Z,0.98
2022-09-10T10:09:00.175Z,1.60
2022-09-10T10:12:08.933Z,1.00
2022-09-10T10:15:41.172Z,0.75
2022-09-10T10:18:23.324Z,1.13
2022-09-10T10:21:10.331Z,1.13
2022-09-10T10:23:41.576Z,1.00
2022-09-10T10:27:04.317Z,0.68
2022-09-10T10:30:02.081Z,0.95
2022-09-10T10:44:37.916Z,0.93
2022-09-10T10:47:34.731Z,0.70
2022-09-10T10:54:18.439Z,0.90
2022-09-10T10:57:06.986Z,1.00
2022-09-10T10:59:39.746Z,0.85
2022-09-10T11:02:29.073Z,1.30
2022-09-10T11:05:20.467Z,1.23
2022-09-10T11:07:54.890Z,1.40
2022-09-10T11:25:28.223Z,1.27
2022-09-10T11:28:34.815Z,1.25
2022-09-10T11:35:17.839Z,1.35
2022-09-10T11:38:01.255Z,0.77
2022-09-10T11:40:40.971Z,1.33
2022-09-10T11:43:14.990Z,1.27
2022-09-10T11:45:48.740Z,0.95
2022-09-10T11:48:25.124Z,1.15
2022-09-10T11:51:01.473Z,1.05
2022-09-10T11:53:29.811Z,1.50
2022-09-10T11:56:35.421Z,1.02
2022-09-10T11:59:53.318Z,1.20
2022-09-10T12:03:37.517Z,2.03
2022-09-10T12:06:18.042Z,1.35
2022-09-10T12:09:03.326Z,1.20
2022-09-10T12:11:47.982Z,1.27
2022-09-10T12:14:38.821Z,1.20
2022-09-10T12:17:27.280Z,1.27
2022-09-10T12:19:57.439Z,1.25
2022-09-10T12:22:36.851Z,1.02
2022-09-10T12:25:28.302Z,1.50
2022-09-10T12:28:00.257Z,1.10
2022-09-10T12:30:52.126Z,1.25
2022-09-10T12:33:22.161Z,0.80
2022-09-10T12:35:49.915Z,1.33
2022-09-10T12:38:44.628Z,0.65
2022-09-10T12:41:21.014Z,0.90
2022-09-10T12:43:53.175Z,0.70
2022-09-10T12:46:22.821Z,0.93
2022-09-10T12:52:13.705Z,0.90
2022-09-10T12:54:49.578Z,0.75
2022-09-10T12:57:30.026Z,0.95
2022-09-10T13:00:22.909Z,0.90
2022-09-10T13:03:07.027Z,1.20
2022-09-10T13:05:46.433Z,0.90
2022-09-10T13:08:18.197Z,0.98
2022-09-10T13:11:00.193Z,1.00
2022-09-10T13:13:59.426Z,0.90
2022-09-10T13:16:26.521Z,1.50
2022-09-10T13:18:57.010Z,1.10
2022-09-10T13:21:24.006Z,1.00
2022-09-10T13:23:56.279Z,0.80
2022-09-10T13:26:37.459Z,1.00
2022-09-10T13:29:27.993Z,1.10
2022-09-10T13:32:31.629Z,0.82
2022-09-10T13:35:12.083Z,0.98
2022-09-10T13:37:53.738Z,1.15
2022-09-10T13:40:39.124Z,0.80
2022-09-10T13:43:27.815Z,1.00
2022-09-10T13:46:05.333Z,0.90
2022-09-10T13:48:46.257Z,1.00
2022-09-10T13:51:29.304Z,0.73
2022-09-10T13:54:07.296Z,0.80
2022-09-10T13:56:35.489Z,0.90
2022-09-10T13:59:05.125Z,0.80
2022-09-10T14:01:59.494Z,0.70
2022-09-10T14:04:31.833Z,0.90
2022-09-10T14:07:22.007Z,0.77
2022-09-10T14:10:01.775Z,0.88
2022-09-10T14:12:32.783Z,1.20
2022-09-10T14:15:02.423Z,1.35
2022-09-10T14:17:34.163Z,1.10
2022-09-10T14:20:05.964Z,1.23
2022-09-10T14:22:32.886Z,0.80
2022-09-10T14:25:01.827Z,0.82
2022-09-10T14:27:39.545Z,1.10
2022-09-10T14:30:18.806Z,0.85
2022-09-10T14:32:48.419Z,0.90
2022-09-10T14:35:40.763Z,1.10
2022-09-10T14:38:34.354Z,1.20
2022-09-10T14:41:16.499Z,0.95
2022-09-10T14:43:43.227Z,0.90
2022-09-10T14:46:34.002Z,0.98
2022-09-10T14:49:01.482Z,0.60
2022-09-10T14:51:28.450Z,0.63
2022-09-10T14:53:57.900Z,0.90
2022-09-10T14:56:29.005Z,0.75
2022-09-10T14:58:57.995Z,0.80
2022-09-10T15:01:25.496Z,1.40
2022-09-10T15:03:52.692Z,1.02
2022-09-10T15:06:21.979Z,0.82
2022-09-10T15:08:52.875Z,0.70
2022-09-10T15:11:22.643Z,0.88
2022-09-10T15:13:49.708Z,0.98
2022-09-10T15:16:16.923Z,0.80
2022-09-10T15:18:43.666Z,0.95
2022-09-10T15:21:14.334Z,1.40
2022-09-10T15:23:42.170Z,1.27
2022-09-10T15:26:13.192Z,0.80
2022-09-10T15:28:41.041Z,1.10
2022-09-10T15:31:09.134Z,1.10
2022-09-10T15:33:36.215Z,0.90
2022-09-10T15:36:03.791Z,1.10
2022-09-10T15:38:32.671Z,1.40
2022-09-10T15:41:13.113Z,1.17
2022-09-10T15:43:43.128Z,1.00
2022-09-10T15:46:11.874Z,1.50
2022-09-10T15:48:39.153Z,1.27
2022-09-10T15:51:11.874Z,1.50
2022-09-10T15:53:39.492Z,1.40
2022-09-10T15:56:07.936Z,1.10
2022-09-10T15:58:35.464Z,1.20
2022-09-10T16:01:07.521Z,1.00
2022-09-10T16:03:34.321Z,1.23
2022-09-10T16:06:13.103Z,1.45
2022-09-10T16:17:10.634Z,1.23
2022-09-10T16:19:42.245Z,1.75
2022-09-10T16:22:08.979Z,1.23
2022-09-10T16:24:36.019Z,1.58
2022-09-10T16:27:03.047Z,1.65
2022-09-10T16:29:29.921Z,1.10
2022-09-10T16:31:56.574Z,1.30
2022-09-10T16:34:24.640Z,1.10
2022-09-10T16:36:56.175Z,0.82
2022-09-10T16:40:09.451Z,1.13
2022-09-10T16:42:36.907Z,0.75
2022-09-10T16:45:07.751Z,1.55
2022-09-10T16:47:36.080Z,1.58
2022-09-10T16:50:03.003Z,1.13
2022-09-10T16:52:30.945Z,1.25
2022-09-10T16:55:02.781Z,0.90
2022-09-10T16:57:30.474Z,0.88
2022-09-10T16:59:57.657Z,1.20
2022-09-10T17:02:24.613Z,1.70
2022-09-10T17:04:51.361Z,1.30
2022-09-10T17:07:20.529Z,1.15
2022-09-10T17:09:47.123Z,1.30
2022-09-10T17:12:13.745Z,1.17
2022-09-10T17:14:40.580Z,1.52
2022-09-10T17:17:07.232Z,1.20
2022-09-10T17:19:34.644Z,1.08
2022-09-10T17:22:01.783Z,1.42
2022-09-10T17:24:31.872Z,1.00
2022-09-10T17:26:58.703Z,1.10
2022-09-10T17:29:26.889Z,1.27
2022-09-10T17:35:04.761Z,1.30
2022-09-10T17:37:32.628Z,1.33
2022-09-10T17:39:59.327Z,1.10
2022-09-10T17:42:26.096Z,1.13
2022-09-10T17:44:53.820Z,1.13
2022-09-10T17:47:21.038Z,1.17
2022-09-10T17:50:06.228Z,1.23
2022-09-10T17:52:33.034Z,0.88
2022-09-10T17:55:03.595Z,1.20
2022-09-10T17:58:01.946Z,1.00
2022-09-10T18:00:28.628Z,1.00
2022-09-10T18:02:55.401Z,1.33
2022-09-10T18:05:22.169Z,1.08
2022-09-10T18:07:48.770Z,1.10
2022-09-10T18:10:49.943Z,1.38
2022-09-10T18:13:41.582Z,1.10
2022-09-10T18:16:21.018Z,1.27
2022-09-10T18:19:00.099Z,2.20
2022-09-10T18:21:35.432Z,1.70
2022-09-10T18:24:03.959Z,1.92
2022-09-10T18:26:32.796Z,1.52
2022-09-10T18:29:16.050Z,2.50
2022-09-10T18:31:51.792Z,1.60
2022-09-10T18:34:23.354Z,1.33
2022-09-10T18:36:57.743Z,1.52
2022-09-10T18:43:04.567Z,1.38
2022-09-10T18:45:31.357Z,1.42
2022-09-10T18:48:07.193Z,1.52
2022-09-10T18:50:40.117Z,1.35
2022-09-10T18:53:09.818Z,1.20
2022-09-10T18:58:51.895Z,1.35
2022-09-10T19:01:19.282Z,1.45
2022-09-10T19:03:48.059Z,1.88
2022-09-10T19:06:32.068Z,1.88
2022-09-10T19:09:10.118Z,1.67
2022-09-10T19:15:39.436Z,1.98
2022-09-10T19:18:06.660Z,1.48
2022-09-10T19:21:07.963Z,1.90
2022-09-10T19:23:39.886Z,1.85
2022-09-10T19:26:09.928Z,2.17
2022-09-10T19:29:21.882Z,2.15
2022-09-10T19:31:50.395Z,2.05
2022-09-10T19:34:19.257Z,1.75
2022-09-10T19:37:28.916Z,2.40
2022-09-10T19:39:57.062Z,1.95
2022-09-10T19:49:26.474Z,2.30
2022-09-10T19:51:54.150Z,2.30
2022-09-10T19:54:22.825Z,2.20
2022-09-10T19:56:50.178Z,2.17
2022-09-10T19:59:17.064Z,2.85
2022-09-10T20:01:46.922Z,2.40
2022-09-10T20:04:49.036Z,2.60
2022-09-10T20:07:16.307Z,2.50
2022-09-10T20:09:43.074Z,2.30
2022-09-10T20:12:56.637Z,2.03
2022-09-10T20:15:26.517Z,2.90
2022-09-10T20:18:28.495Z,2.10
2022-09-10T20:21:15.564Z,4.57
2022-09-10T20:35:10.858Z,2.67
2022-09-10T20:38:45.170Z,2.58
2022-09-10T20:45:12.607Z,2.95
2022-09-10T20:47:43.421Z,3.40
2022-09-10T20:50:13.005Z,2.80
2022-09-10T20:52:42.208Z,2.80
2022-09-10T20:55:11.931Z,3.20
2022-09-10T20:57:59.004Z,2.83
2022-09-10T21:00:26.108Z,2.75
2022-09-10T21:02:53.157Z,3.22
2022-09-10T21:06:23.824Z,3.53
2022-09-10T21:12:42.925Z,2.90
2022-09-10T21:17:36.444Z,3.25
2022-09-10T21:20:04.230Z,4.15
2022-09-10T21:26:51.404Z,3.88
2022-09-10T21:41:15.021Z,5.45
2022-09-10T21:43:47.269Z,4.82
2022-09-10T21:46:23.970Z,4.68
2022-09-10T21:57:17.272Z,4.15
2022-09-10T22:11:59.290Z,4.40
2022-09-10T22:19:23.469Z,4.53
2022-09-10T22:21:51.021Z,4.63
2022-09-10T22:24:20.990Z,4.53
2022-09-10T22:26:47.757Z,5.05
2022-09-10T22:29:19.284Z,4.10
2022-09-10T22:31:47.086Z,4.13
2022-09-10T22:34:15.517Z,5.40
2022-09-10T22:36:44.461Z,4.80
2022-09-10T22:39:15.860Z,5.57
2022-09-10T22:41:43.890Z,4.35
2022-09-10T22:44:11.154Z,5.18
2022-09-10T22:46:39.183Z,4.80
2022-09-10T22:56:09.231Z,4.93
2022-09-10T22:58:36.300Z,5.00
2022-09-10T23:01:05.371Z,5.25
2022-09-10T23:07:22.901Z,4.53
2022-09-10T23:10:57.040Z,5.03
2022-09-10T23:13:23.831Z,4.40
2022-09-10T23:15:50.489Z,4.72
2022-09-10T23:18:17.165Z,4.80
2022-09-10T23:20:44.416Z,4.43
2022-09-10T23:23:11.199Z,4.95
2022-09-10T23:25:38.050Z,4.63
2022-09-10T23:28:12.061Z,4.15
2022-09-10T23:30:47.217Z,6.40
2022-09-10T23:33:49.941Z,5.07
2022-09-10T23:36:27.909Z,5.20
2022-09-10T23:39:30.012Z,4.60
